createdAt,value
2017-12-22T00:00:49.613Z,22.4
2017-12-22T00:01:57.710Z,22.4
2017-12-22T00:03:05.782Z,22.4
2017-12-22T00:04:13.868Z,22.4
2017-12-22T00:05:21.956Z,22.4
2017-12-22T00:06:30.041Z,22.3
2017-12-22T00:07:38.143Z,22.4
2017-12-22T00:08:46.244Z,22.5
2017-12-22T00:09:54.331Z,22.5
2017-12-22T00:11:02.408Z,22.5
2017-12-22T00:12:10.503Z,22.4
2017-12-22T00:13:18.597Z,22.6
2017-12-22T00:14:26.669Z,22.5
2017-12-22T00:15:34.766Z,22.6
2017-12-22T00:16:42.849Z,22.5
2017-12-22T00:17:50.938Z,22.5
2017-12-22T00:18:59.008Z,22.5
2017-12-22T00:20:07.109Z,22.6
2017-12-22T00:21:15.194Z,22.6
2017-12-22T00:22:23.283Z,22.6
2017-12-22T00:23:31.372Z,22.6
2017-12-22T00:24:39.459Z,22.6
2017-12-22T00:25:47.545Z,22.6
2017-12-22T00:26:55.631Z,22.7
2017-12-22T00:28:03.722Z,22.6
2017-12-22T00:29:11.819Z,22.6
2017-12-22T00:30:19.892Z,22.7
2017-12-22T00:31:27.980Z,22.6
2017-12-22T00:32:36.066Z,22.6
2017-12-22T00:33:45.746Z,22.6
2017-12-22T00:34:53.830Z,22.8
2017-12-22T00:36:01.917Z,22.7
2017-12-22T00:37:10.005Z,22.7
2017-12-22T00:38:18.087Z,22.7
2017-12-22T00:39:26.175Z,22.8
2017-12-22T00:40:34.270Z,22.8
2017-12-22T00:41:42.356Z,22.8
2017-12-22T00:42:50.443Z,22.8
2017-12-22T00:43:58.527Z,22.8
2017-12-22T00:45:06.614Z,22.9
2017-12-22T00:46:14.702Z,22.8
2017-12-22T00:47:22.784Z,22.8
2017-12-22T00:48:30.874Z,22.9
2017-12-22T00:49:38.963Z,22.8
2017-12-22T00:50:47.048Z,22.9
2017-12-22T00:51:55.134Z,22.8
2017-12-22T00:53:03.222Z,22.8
2017-12-22T00:54:11.307Z,22.9
2017-12-22T00:55:19.391Z,22.9
2017-12-22T00:56:27.478Z,22.9
2017-12-22T00:57:35.567Z,22.9
2017-12-22T00:58:43.657Z,22.9
2017-12-22T00:59:51.738Z,23.0
2017-12-22T01:00:59.824Z,22.9
2017-12-22T01:02:07.912Z,22.9
2017-12-22T01:03:15.997Z,22.9
2017-12-22T01:04:24.082Z,22.9
2017-12-22T01:05:32.168Z,22.9
2017-12-22T01:06:40.261Z,23.0
2017-12-22T01:07:48.343Z,23.0
2017-12-22T01:08:56.435Z,23.0
2017-12-22T01:10:04.532Z,23.0
2017-12-22T01:11:12.611Z,23.0
2017-12-22T01:12:20.699Z,23.0
2017-12-22T01:13:28.783Z,23.1
2017-12-22T01:14:36.874Z,23.1
2017-12-22T01:15:44.960Z,23.0
2017-12-22T01:16:53.048Z,23.1
2017-12-22T01:18:01.135Z,23.1
2017-12-22T01:19:09.220Z,23.1
2017-12-22T01:20:17.308Z,23.0
2017-12-22T01:21:25.395Z,23.0
2017-12-22T01:22:33.477Z,23.0
2017-12-22T01:23:41.569Z,23.1
2017-12-22T01:24:49.655Z,23.1
2017-12-22T01:25:57.740Z,23.0
2017-12-22T01:27:05.827Z,23.1
2017-12-22T01:28:13.912Z,23.0
2017-12-22T01:29:21.999Z,23.1
2017-12-22T01:30:30.093Z,23.0
2017-12-22T01:31:38.180Z,23.1
2017-12-22T01:32:46.275Z,23.1
2017-12-22T01:33:54.767Z,23.1
2017-12-22T01:35:02.852Z,23.1
2017-12-22T01:36:10.948Z,23.1
2017-12-22T01:37:19.031Z,23.1
2017-12-22T01:38:27.133Z,23.1
2017-12-22T01:39:35.206Z,23.1
2017-12-22T01:40:43.293Z,23.0
2017-12-22T01:41:51.397Z,23.0
2017-12-22T01:42:59.467Z,23.0
2017-12-22T01:44:07.554Z,23.1
2017-12-22T01:45:15.637Z,23.1
2017-12-22T01:46:23.730Z,23.1
2017-12-22T01:47:31.817Z,23.1
2017-12-22T01:48:39.905Z,23.1
2017-12-22T01:49:47.989Z,23.1
2017-12-22T01:50:56.073Z,23.1
2017-12-22T01:52:04.161Z,23.1
2017-12-22T01:53:12.251Z,23.0
2017-12-22T01:54:20.334Z,23.1
2017-12-22T01:55:28.421Z,23.1
2017-12-22T01:56:36.508Z,23.1
2017-12-22T01:57:44.600Z,23.0
2017-12-22T01:58:52.681Z,23.1
2017-12-22T02:00:00.768Z,23.0
2017-12-22T02:01:08.856Z,23.0
2017-12-22T02:02:16.943Z,23.0
2017-12-22T02:03:25.027Z,23.0
2017-12-22T02:04:33.113Z,23.0
2017-12-22T02:05:41.199Z,23.1
2017-12-22T02:06:49.293Z,23.0
2017-12-22T02:07:57.645Z,23.0
2017-12-22T02:09:05.737Z,23.0
2017-12-22T02:10:13.824Z,23.0
2017-12-22T02:11:21.930Z,23.0
2017-12-22T02:12:29.997Z,23.0
2017-12-22T02:13:38.083Z,23.0
2017-12-22T02:14:46.168Z,22.9
2017-12-22T02:15:54.255Z,23.0
2017-12-22T02:17:02.343Z,22.9
2017-12-22T02:18:10.429Z,22.9
2017-12-22T02:19:18.517Z,22.9
2017-12-22T02:20:26.609Z,22.9
2017-12-22T02:21:34.691Z,22.9
2017-12-22T02:22:42.775Z,22.9
2017-12-22T02:23:50.993Z,23.0
2017-12-22T02:24:59.079Z,23.0
2017-12-22T02:26:07.168Z,23.0
2017-12-22T02:27:15.254Z,22.9
2017-12-22T02:28:23.340Z,22.9
2017-12-22T02:29:31.510Z,22.9
2017-12-22T02:30:39.596Z,22.8
2017-12-22T02:31:47.683Z,22.9
2017-12-22T02:32:55.769Z,22.9
2017-12-22T02:34:03.860Z,22.8
2017-12-22T02:35:11.944Z,22.9
2017-12-22T02:36:20.036Z,22.9
2017-12-22T02:37:28.125Z,22.9
2017-12-22T02:38:36.210Z,22.8
2017-12-22T02:39:44.297Z,22.8
2017-12-22T02:40:52.383Z,22.8
2017-12-22T02:42:00.468Z,22.8
2017-12-22T02:43:08.566Z,22.8
2017-12-22T02:44:16.647Z,22.8
2017-12-22T02:45:24.730Z,22.8
2017-12-22T02:46:32.817Z,22.8
2017-12-22T02:47:40.906Z,22.8
2017-12-22T02:48:48.991Z,22.8
2017-12-22T02:49:57.073Z,22.8
2017-12-22T02:51:05.166Z,22.8
2017-12-22T02:52:13.253Z,22.8
2017-12-22T02:53:21.339Z,22.8
2017-12-22T02:54:29.428Z,22.8
2017-12-22T02:55:37.515Z,22.8
2017-12-22T02:56:45.601Z,22.7
2017-12-22T02:57:53.688Z,22.7
2017-12-22T02:59:01.777Z,22.7
2017-12-22T03:00:09.859Z,22.6
2017-12-22T03:01:17.943Z,22.6
2017-12-22T03:02:26.030Z,22.6
2017-12-22T03:03:34.118Z,22.6
2017-12-22T03:04:42.204Z,22.6
2017-12-22T03:05:50.291Z,22.6
2017-12-22T03:06:58.376Z,22.6
2017-12-22T03:08:06.464Z,22.6
2017-12-22T03:09:14.550Z,22.7
2017-12-22T03:10:22.635Z,22.6
2017-12-22T03:11:30.723Z,22.6
2017-12-22T03:12:38.809Z,22.6
2017-12-22T03:13:46.897Z,22.6
2017-12-22T03:14:54.982Z,22.6
2017-12-22T03:16:03.068Z,22.6
2017-12-22T03:17:11.162Z,22.6
2017-12-22T03:18:19.254Z,22.5
2017-12-22T03:19:27.333Z,22.5
2017-12-22T03:20:35.420Z,22.6
2017-12-22T03:21:43.507Z,22.5
2017-12-22T03:22:51.594Z,22.5
2017-12-22T03:23:59.679Z,22.5
2017-12-22T03:25:07.766Z,22.5
2017-12-22T03:26:15.853Z,22.5
2017-12-22T03:27:23.955Z,22.6
2017-12-22T03:28:32.030Z,22.5
2017-12-22T03:29:40.117Z,22.5
2017-12-22T03:30:48.205Z,22.4
2017-12-22T03:31:56.299Z,22.5
2017-12-22T03:33:04.386Z,22.4
2017-12-22T03:34:12.472Z,22.5
2017-12-22T03:35:20.557Z,22.5
2017-12-22T03:36:28.643Z,22.4
2017-12-22T03:37:36.738Z,22.3
2017-12-22T03:38:44.821Z,22.4
2017-12-22T03:39:52.905Z,22.4
2017-12-22T03:41:00.989Z,22.3
2017-12-22T03:42:09.077Z,22.4
2017-12-22T03:43:17.169Z,22.2
2017-12-22T03:44:25.247Z,22.3
2017-12-22T03:45:33.335Z,22.3
2017-12-22T03:46:41.424Z,22.2
2017-12-22T03:47:49.506Z,22.3
2017-12-22T03:48:57.748Z,22.2
2017-12-22T03:50:05.841Z,22.2
2017-12-22T03:51:13.923Z,22.1
2017-12-22T03:52:22.021Z,22.2
2017-12-22T03:53:30.107Z,22.2
2017-12-22T03:54:38.191Z,22.2
2017-12-22T03:55:46.277Z,22.2
2017-12-22T03:56:54.361Z,22.2
2017-12-22T03:58:02.450Z,22.1
2017-12-22T03:59:10.536Z,22.1
2017-12-22T04:00:18.622Z,22.1
2017-12-22T04:01:26.711Z,22.2
2017-12-22T04:02:34.796Z,22.1
2017-12-22T04:03:42.881Z,22.1
2017-12-22T04:04:50.967Z,22.1
2017-12-22T04:05:59.049Z,22.1
2017-12-22T04:07:07.136Z,22.1
2017-12-22T04:08:15.223Z,22.0
2017-12-22T04:09:23.313Z,22.1
2017-12-22T04:10:31.396Z,22.0
2017-12-22T04:11:39.485Z,21.8
2017-12-22T04:12:47.569Z,21.9
2017-12-22T04:13:55.752Z,21.9
2017-12-22T04:15:03.820Z,22.0
2017-12-22T04:16:11.904Z,21.9
2017-12-22T04:17:19.996Z,21.9
2017-12-22T04:18:28.076Z,21.9
2017-12-22T04:19:36.162Z,21.9
2017-12-22T04:20:44.260Z,21.9
2017-12-22T04:21:52.343Z,21.8
2017-12-22T04:23:00.431Z,21.8
2017-12-22T04:24:08.516Z,21.8
2017-12-22T04:25:16.832Z,21.8
2017-12-22T04:26:24.917Z,21.8
2017-12-22T04:27:33.004Z,21.8
2017-12-22T04:28:41.088Z,21.8
2017-12-22T04:29:49.175Z,21.8
2017-12-22T04:30:57.257Z,21.7
2017-12-22T04:32:05.344Z,21.7
2017-12-22T04:33:13.439Z,21.8
2017-12-22T04:34:21.517Z,21.8
2017-12-22T04:35:29.603Z,21.7
2017-12-22T04:36:37.695Z,21.7
2017-12-22T04:37:45.777Z,21.7
2017-12-22T04:38:53.871Z,21.7
2017-12-22T04:40:04.533Z,21.6
2017-12-22T04:41:10.595Z,21.6
2017-12-22T04:42:18.682Z,21.6
2017-12-22T04:43:26.786Z,21.6
2017-12-22T04:44:34.853Z,21.7
2017-12-22T04:45:42.940Z,21.7
2017-12-22T04:46:51.025Z,21.6
2017-12-22T04:47:59.110Z,21.5
2017-12-22T04:49:07.195Z,21.6
2017-12-22T04:50:15.287Z,21.6
2017-12-22T04:51:23.384Z,21.6
2017-12-22T04:52:31.475Z,21.6
2017-12-22T04:53:39.561Z,21.5
2017-12-22T04:54:47.647Z,21.6
2017-12-22T04:55:55.732Z,21.5
2017-12-22T04:57:03.814Z,21.5
2017-12-22T04:58:11.916Z,21.6
2017-12-22T04:59:20.028Z,21.5
2017-12-22T05:00:28.092Z,21.4
2017-12-22T05:01:36.188Z,21.4
2017-12-22T05:02:44.263Z,21.5
2017-12-22T05:03:52.349Z,21.4
2017-12-22T05:05:00.434Z,21.4
2017-12-22T05:06:08.523Z,21.4
2017-12-22T05:07:16.602Z,21.3
2017-12-22T05:08:24.687Z,21.3
2017-12-22T05:09:32.880Z,21.3
2017-12-22T05:10:40.965Z,21.3
2017-12-22T05:11:49.057Z,21.3
2017-12-22T05:12:57.135Z,21.3
2017-12-22T05:14:05.223Z,21.3
2017-12-22T05:15:13.315Z,21.2
2017-12-22T05:16:21.402Z,21.2
2017-12-22T05:17:29.486Z,21.3
2017-12-22T05:18:37.571Z,21.2
2017-12-22T05:19:45.656Z,21.2
2017-12-22T05:20:53.742Z,21.2
2017-12-22T05:22:01.836Z,21.2
2017-12-22T05:23:09.922Z,21.2
2017-12-22T05:24:18.128Z,21.2
2017-12-22T05:25:26.092Z,21.2
2017-12-22T05:26:39.577Z,21.2
2017-12-22T05:27:47.757Z,21.1
2017-12-22T05:28:55.750Z,21.1
2017-12-22T05:30:03.833Z,21.1
2017-12-22T05:31:11.922Z,21.1
2017-12-22T05:32:20.010Z,21.0
2017-12-22T05:33:28.093Z,21.0
2017-12-22T05:34:36.184Z,21.1
2017-12-22T05:35:44.401Z,21.1
2017-12-22T05:36:52.693Z,21.1
2017-12-22T05:38:00.569Z,21.1
2017-12-22T05:39:08.654Z,21.0
2017-12-22T05:40:16.740Z,21.0
2017-12-22T05:41:24.825Z,21.0
2017-12-22T05:42:32.912Z,21.0
2017-12-22T05:43:41.004Z,21.0
2017-12-22T05:44:49.110Z,21.1
2017-12-22T05:45:57.187Z,21.0
2017-12-22T05:47:05.274Z,21.0
2017-12-22T05:48:13.358Z,21.0
2017-12-22T05:49:21.444Z,21.1
2017-12-22T05:50:29.542Z,21.0
2017-12-22T05:51:37.645Z,21.0
2017-12-22T05:52:45.717Z,21.0
2017-12-22T05:53:54.883Z,21.0
2017-12-22T05:55:01.883Z,21.0
2017-12-22T05:56:09.971Z,21.0
2017-12-22T05:57:18.052Z,21.0
2017-12-22T05:58:26.138Z,21.0
2017-12-22T05:59:34.222Z,21.0
2017-12-22T06:00:42.308Z,20.9
2017-12-22T06:01:50.544Z,21.0
2017-12-22T06:02:58.688Z,20.9
2017-12-22T06:04:06.816Z,20.9
2017-12-22T06:05:19.258Z,20.9
2017-12-22T06:06:22.976Z,21.0
2017-12-22T06:07:31.065Z,20.9
2017-12-22T06:08:39.076Z,21.1
2017-12-22T06:09:47.232Z,20.9
2017-12-22T06:10:55.297Z,21.0
2017-12-22T06:12:03.498Z,21.0
2017-12-22T06:13:11.519Z,21.0
2017-12-22T06:14:19.627Z,20.9
2017-12-22T06:15:28.583Z,20.9
2017-12-22T06:16:35.565Z,21.0
2017-12-22T06:17:43.651Z,21.0
2017-12-22T06:18:51.734Z,21.0
2017-12-22T06:20:00.188Z,21.0
2017-12-22T06:21:08.272Z,21.0
2017-12-22T06:22:16.353Z,21.1
2017-12-22T06:23:24.436Z,21.1
2017-12-22T06:24:32.521Z,21.0
2017-12-22T06:25:40.607Z,21.0
2017-12-22T06:26:48.689Z,21.1
2017-12-22T06:27:56.776Z,21.1
2017-12-22T06:29:04.884Z,21.1
2017-12-22T06:30:12.988Z,21.1
2017-12-22T06:31:21.039Z,21.0
2017-12-22T06:32:29.118Z,21.1
2017-12-22T06:33:37.203Z,21.0
2017-12-22T06:34:45.288Z,21.1
2017-12-22T06:35:53.374Z,21.0
2017-12-22T06:37:01.457Z,21.1
2017-12-22T06:38:09.544Z,21.2
2017-12-22T06:39:17.633Z,21.2
2017-12-22T06:40:25.713Z,21.1
2017-12-22T06:41:33.802Z,21.2
2017-12-22T06:42:41.884Z,21.2
2017-12-22T06:43:49.969Z,21.3
2017-12-22T06:44:58.054Z,21.3
2017-12-22T06:46:06.138Z,21.3
2017-12-22T06:47:14.223Z,21.2
2017-12-22T06:48:22.310Z,21.3
2017-12-22T06:49:30.400Z,21.3
2017-12-22T06:50:38.480Z,21.3
2017-12-22T06:51:46.564Z,21.3
2017-12-22T06:52:54.648Z,21.3
2017-12-22T06:54:02.735Z,21.4
2017-12-22T06:55:10.821Z,21.4
2017-12-22T06:56:18.914Z,21.4
2017-12-22T06:57:27.070Z,21.5
2017-12-22T06:58:35.081Z,21.5
2017-12-22T06:59:43.163Z,21.5
2017-12-22T07:00:51.255Z,21.5
2017-12-22T07:01:59.338Z,21.6
2017-12-22T07:03:07.421Z,21.6
2017-12-22T07:04:15.508Z,21.6
2017-12-22T07:05:23.598Z,21.6
2017-12-22T07:06:31.680Z,21.6
2017-12-22T07:07:39.770Z,21.7
2017-12-22T07:08:47.846Z,21.7
2017-12-22T07:09:55.931Z,21.6
2017-12-22T07:11:04.021Z,21.7
2017-12-22T07:12:12.101Z,21.7
2017-12-22T07:13:20.187Z,21.8
2017-12-22T07:14:28.275Z,21.8
2017-12-22T07:15:36.359Z,21.8
2017-12-22T07:16:44.443Z,21.7
2017-12-22T07:17:52.536Z,21.8
2017-12-22T07:19:00.615Z,21.8
2017-12-22T07:20:08.707Z,21.8
2017-12-22T07:21:16.785Z,21.9
2017-12-22T07:22:24.883Z,21.9
2017-12-22T07:23:32.958Z,21.9
2017-12-22T07:24:41.042Z,21.9
2017-12-22T07:25:49.128Z,21.9
2017-12-22T07:26:57.212Z,22.0
2017-12-22T07:28:05.299Z,22.0
2017-12-22T07:29:13.382Z,22.0
2017-12-22T07:30:21.469Z,22.1
2017-12-22T07:31:29.552Z,22.1
2017-12-22T07:32:37.957Z,22.1
2017-12-22T07:33:46.043Z,22.1
2017-12-22T07:34:54.126Z,22.2
2017-12-22T07:36:02.218Z,22.1
2017-12-22T07:37:10.304Z,22.2
2017-12-22T07:38:18.389Z,22.2
2017-12-22T07:39:26.510Z,22.2
2017-12-22T07:40:34.564Z,22.3
2017-12-22T07:41:42.648Z,22.3
2017-12-22T07:42:50.733Z,22.3
2017-12-22T07:43:58.818Z,22.3
2017-12-22T07:45:06.908Z,22.4
2017-12-22T07:46:14.990Z,22.4
2017-12-22T07:47:23.080Z,22.4
2017-12-22T07:48:31.162Z,22.4
2017-12-22T07:49:39.249Z,22.4
2017-12-22T07:50:47.333Z,22.5
2017-12-22T07:51:55.420Z,22.5
2017-12-22T07:53:03.506Z,22.5
2017-12-22T07:54:11.589Z,22.5
2017-12-22T07:55:19.677Z,22.5
2017-12-22T07:56:27.764Z,22.5
2017-12-22T07:57:35.849Z,22.6
2017-12-22T07:58:43.936Z,22.6
2017-12-22T07:59:52.023Z,22.5
2017-12-22T08:01:00.108Z,22.6
2017-12-22T08:02:08.192Z,22.6
2017-12-22T08:03:16.277Z,22.6
2017-12-22T08:04:24.362Z,22.6
2017-12-22T08:05:32.448Z,22.6
2017-12-22T08:06:40.533Z,22.6
2017-12-22T08:07:48.619Z,22.6
2017-12-22T08:08:56.708Z,22.7
2017-12-22T08:10:04.791Z,22.6
2017-12-22T08:11:12.882Z,22.7
2017-12-22T08:12:20.965Z,22.8
2017-12-22T08:13:29.049Z,22.7
2017-12-22T08:14:37.135Z,22.8
2017-12-22T08:15:45.222Z,22.8
2017-12-22T08:16:53.319Z,22.8
2017-12-22T08:18:01.393Z,22.8
2017-12-22T08:19:09.484Z,22.8
2017-12-22T08:20:17.587Z,22.8
2017-12-22T08:21:25.653Z,22.8
2017-12-22T08:22:33.744Z,22.8
2017-12-22T08:23:41.824Z,22.9
2017-12-22T08:24:49.908Z,22.8
2017-12-22T08:25:57.997Z,22.9
2017-12-22T08:27:06.081Z,22.8
2017-12-22T08:28:14.177Z,22.9
2017-12-22T08:29:22.257Z,22.9
2017-12-22T08:30:30.341Z,22.8
2017-12-22T08:31:38.447Z,22.8
2017-12-22T08:32:46.534Z,22.8
2017-12-22T08:33:54.620Z,22.9
2017-12-22T08:35:02.705Z,22.9
2017-12-22T08:36:10.800Z,22.9
2017-12-22T08:37:18.879Z,22.9
2017-12-22T08:38:26.966Z,22.9
2017-12-22T08:39:35.050Z,23.0
2017-12-22T08:40:43.136Z,23.0
2017-12-22T08:41:51.223Z,22.9
2017-12-22T08:42:59.310Z,22.9
2017-12-22T08:44:07.395Z,22.9
2017-12-22T08:45:15.482Z,23.0
2017-12-22T08:46:23.569Z,22.9
2017-12-22T08:47:31.654Z,23.0
2017-12-22T08:48:39.740Z,22.9
2017-12-22T08:49:47.838Z,23.0
2017-12-22T08:50:55.923Z,23.0
2017-12-22T08:52:04.014Z,23.0
2017-12-22T08:53:12.105Z,23.0
2017-12-22T08:54:20.190Z,22.9
2017-12-22T08:55:28.279Z,22.9
2017-12-22T08:56:36.365Z,23.0
2017-12-22T08:57:44.814Z,23.0
2017-12-22T08:58:52.898Z,23.0
2017-12-22T09:00:00.984Z,23.0
2017-12-22T09:01:09.074Z,22.9
2017-12-22T09:02:17.159Z,23.0
2017-12-22T09:03:25.247Z,23.0
2017-12-22T09:04:33.333Z,23.1
2017-12-22T09:05:41.424Z,23.1
2017-12-22T09:06:49.517Z,23.0
2017-12-22T09:07:57.602Z,23.0
2017-12-22T09:09:05.691Z,23.0
2017-12-22T09:10:13.777Z,23.1
2017-12-22T09:11:21.865Z,23.0
2017-12-22T09:12:30.015Z,23.0
2017-12-22T09:13:38.036Z,23.1
2017-12-22T09:14:46.123Z,23.1
2017-12-22T09:15:54.215Z,23.1
2017-12-22T09:17:02.334Z,23.1
2017-12-22T09:18:10.385Z,23.1
2017-12-22T09:19:18.471Z,23.1
2017-12-22T09:20:26.567Z,23.0
2017-12-22T09:21:34.654Z,23.1
2017-12-22T09:22:42.739Z,23.1
2017-12-22T09:23:50.826Z,23.1
2017-12-22T09:24:58.920Z,23.1
2017-12-22T09:26:06.999Z,23.1
2017-12-22T09:27:15.105Z,23.0
2017-12-22T09:28:23.171Z,23.0
2017-12-22T09:29:31.258Z,23.0
2017-12-22T09:30:39.344Z,23.0
2017-12-22T09:31:47.431Z,23.1
2017-12-22T09:32:55.533Z,23.0
2017-12-22T09:34:03.604Z,23.0
2017-12-22T09:35:11.690Z,23.0
2017-12-22T09:36:19.777Z,23.0
2017-12-22T09:37:27.885Z,23.0
2017-12-22T09:38:35.971Z,23.0
2017-12-22T09:39:44.055Z,23.0
2017-12-22T09:40:52.146Z,23.0
2017-12-22T09:42:00.232Z,23.0
2017-12-22T09:43:08.320Z,23.0
2017-12-22T09:44:16.406Z,23.0
2017-12-22T09:45:24.492Z,23.0
2017-12-22T09:46:32.583Z,23.0
2017-12-22T09:47:40.665Z,22.9
2017-12-22T09:48:48.814Z,23.0
2017-12-22T09:49:56.901Z,23.0
2017-12-22T09:51:05.015Z,22.9
2017-12-22T09:52:13.074Z,23.0
2017-12-22T09:53:21.160Z,23.0
2017-12-22T09:54:29.257Z,22.9
2017-12-22T09:55:37.332Z,22.9
2017-12-22T09:56:45.419Z,23.0
2017-12-22T09:57:53.515Z,22.9
2017-12-22T09:59:01.593Z,22.9
2017-12-22T10:00:09.679Z,23.0
2017-12-22T10:01:17.767Z,22.9
2017-12-22T10:02:25.855Z,23.0
2017-12-22T10:03:33.939Z,22.9
2017-12-22T10:04:42.027Z,23.0
2017-12-22T10:05:50.114Z,22.9
2017-12-22T10:06:58.207Z,22.9
2017-12-22T10:08:06.289Z,22.9
2017-12-22T10:09:14.375Z,22.9
2017-12-22T10:10:22.460Z,22.9
2017-12-22T10:11:30.547Z,22.8
2017-12-22T10:12:38.632Z,22.8
2017-12-22T10:13:46.720Z,22.9
2017-12-22T10:14:54.808Z,22.8
2017-12-22T10:16:03.211Z,22.9
2017-12-22T10:17:10.980Z,22.9
2017-12-22T10:18:19.067Z,22.9
2017-12-22T10:19:27.159Z,22.9
2017-12-22T10:20:36.079Z,22.9
2017-12-22T10:21:43.324Z,22.8
2017-12-22T10:22:51.429Z,22.9
2017-12-22T10:23:59.499Z,22.9
2017-12-22T10:25:07.587Z,22.8
2017-12-22T10:26:15.673Z,22.8
2017-12-22T10:27:23.759Z,22.8
2017-12-22T10:28:31.846Z,22.8
2017-12-22T10:29:39.932Z,22.8
2017-12-22T10:30:48.020Z,22.8
2017-12-22T10:31:56.103Z,22.8
2017-12-22T10:33:04.188Z,22.7
2017-12-22T10:34:12.297Z,22.9
2017-12-22T10:35:20.383Z,22.8
2017-12-22T10:36:28.475Z,22.7
2017-12-22T10:37:36.556Z,22.8
2017-12-22T10:38:44.648Z,22.8
2017-12-22T10:39:52.739Z,22.8
2017-12-22T10:41:00.826Z,22.8
2017-12-22T10:42:08.914Z,22.7
2017-12-22T10:43:16.999Z,22.8
2017-12-22T10:44:25.084Z,22.7
2017-12-22T10:45:33.176Z,22.7
2017-12-22T10:46:41.259Z,22.6
2017-12-22T10:47:49.344Z,22.8
2017-12-22T10:48:57.438Z,22.6
2017-12-22T10:50:05.530Z,22.6
2017-12-22T10:51:13.630Z,22.7
2017-12-22T10:52:21.710Z,22.6
2017-12-22T10:53:29.794Z,22.7
2017-12-22T10:54:37.879Z,22.6
2017-12-22T10:55:45.967Z,22.6
2017-12-22T10:56:54.056Z,22.6
2017-12-22T10:58:02.139Z,22.6
2017-12-22T10:59:10.226Z,22.6
2017-12-22T11:00:18.314Z,22.6
2017-12-22T11:01:26.398Z,22.6
2017-12-22T11:02:34.484Z,22.5
2017-12-22T11:03:42.572Z,22.6
2017-12-22T11:04:50.660Z,22.6
2017-12-22T11:05:58.745Z,22.6
2017-12-22T11:07:06.833Z,22.6
2017-12-22T11:08:14.920Z,22.6
2017-12-22T11:09:23.003Z,22.6
2017-12-22T11:10:31.088Z,22.5
2017-12-22T11:11:39.180Z,22.5
2017-12-22T11:12:47.259Z,22.5
2017-12-22T11:13:55.348Z,22.5
2017-12-22T11:15:03.433Z,22.5
2017-12-22T11:16:11.519Z,22.5
2017-12-22T11:17:19.608Z,22.5
2017-12-22T11:18:27.695Z,22.5
2017-12-22T11:19:35.779Z,22.5
2017-12-22T11:20:43.864Z,22.5
2017-12-22T11:21:51.951Z,22.5
2017-12-22T11:23:00.039Z,22.4
2017-12-22T11:24:08.125Z,22.4
2017-12-22T11:25:16.222Z,22.4
2017-12-22T11:26:24.296Z,22.4
2017-12-22T11:27:32.385Z,22.4
2017-12-22T11:28:40.576Z,22.4
2017-12-22T11:29:48.556Z,22.4
2017-12-22T11:30:56.642Z,22.4
2017-12-22T11:32:04.726Z,22.4
2017-12-22T11:33:12.813Z,22.4
2017-12-22T11:34:20.899Z,22.3
2017-12-22T11:35:28.987Z,22.3
2017-12-22T11:36:37.074Z,22.3
2017-12-22T11:37:45.159Z,22.3
2017-12-22T11:38:53.246Z,22.3
2017-12-22T11:40:01.332Z,22.2
2017-12-22T11:41:09.563Z,22.3
2017-12-22T11:42:17.511Z,22.3
2017-12-22T11:43:25.595Z,22.1
2017-12-22T11:44:33.685Z,22.3
2017-12-22T11:45:41.769Z,22.3
2017-12-22T11:46:49.856Z,22.3
2017-12-22T11:47:57.944Z,22.2
2017-12-22T11:49:06.107Z,22.2
2017-12-22T11:50:14.113Z,22.2
2017-12-22T11:51:22.199Z,22.2
2017-12-22T11:52:30.290Z,22.2
2017-12-22T11:53:38.379Z,22.2
2017-12-22T11:54:46.464Z,22.2
2017-12-22T11:55:54.549Z,22.2
2017-12-22T11:57:02.636Z,22.2
2017-12-22T11:58:10.738Z,22.2
2017-12-22T11:59:18.805Z,22.2
2017-12-22T12:00:26.893Z,22.2
2017-12-22T12:01:34.978Z,22.1
2017-12-22T12:02:43.067Z,22.1
2017-12-22T12:03:51.152Z,22.1
2017-12-22T12:04:59.239Z,22.1
2017-12-22T12:06:07.318Z,22.1
2017-12-22T12:07:15.416Z,22.0
2017-12-22T12:08:23.501Z,22.0
2017-12-22T12:09:31.588Z,22.1
2017-12-22T12:10:39.675Z,22.0
2017-12-22T12:11:47.760Z,22.0
2017-12-22T12:12:55.852Z,22.0
2017-12-22T12:14:03.936Z,22.0
2017-12-22T12:15:12.021Z,21.9
2017-12-22T12:16:20.112Z,21.9
2017-12-22T12:17:28.191Z,21.9
2017-12-22T12:18:36.283Z,21.9
2017-12-22T12:19:44.379Z,21.9
2017-12-22T12:20:52.462Z,21.9
2017-12-22T12:22:00.557Z,21.9
2017-12-22T12:23:08.643Z,21.9
2017-12-22T12:24:16.731Z,21.9
2017-12-22T12:25:24.818Z,21.8
2017-12-22T12:26:32.901Z,21.8
2017-12-22T12:27:40.991Z,21.8
2017-12-22T12:28:49.073Z,21.8
2017-12-22T12:29:57.157Z,21.8
2017-12-22T12:31:05.253Z,21.8
2017-12-22T12:32:13.335Z,21.8
2017-12-22T12:33:21.415Z,21.8
2017-12-22T12:34:29.499Z,21.7
2017-12-22T12:35:37.588Z,21.7
2017-12-22T12:36:45.674Z,21.7
2017-12-22T12:37:53.759Z,21.7
2017-12-22T12:39:01.842Z,21.7
2017-12-22T12:40:09.930Z,21.7
2017-12-22T12:41:18.014Z,21.7
2017-12-22T12:42:26.101Z,21.7
2017-12-22T12:43:34.186Z,21.7
2017-12-22T12:44:42.290Z,21.6
2017-12-22T12:45:50.362Z,21.7
2017-12-22T12:46:58.441Z,21.6
2017-12-22T12:48:06.542Z,21.6
2017-12-22T12:49:14.627Z,21.7
2017-12-22T12:50:22.712Z,21.6
2017-12-22T12:51:30.796Z,21.6
2017-12-22T12:52:38.887Z,21.7
2017-12-22T12:53:46.970Z,21.6
2017-12-22T12:54:55.065Z,21.7
2017-12-22T12:56:03.139Z,21.6
2017-12-22T12:57:11.231Z,21.7
2017-12-22T12:58:19.311Z,21.6
2017-12-22T12:59:27.397Z,21.6
2017-12-22T13:00:35.488Z,21.6
2017-12-22T13:01:43.574Z,21.6
2017-12-22T13:02:51.663Z,21.6
2017-12-22T13:03:59.750Z,21.6
2017-12-22T13:05:07.834Z,21.5
2017-12-22T13:06:15.927Z,21.5
2017-12-22T13:07:24.005Z,21.5
2017-12-22T13:08:32.091Z,21.4
2017-12-22T13:09:40.184Z,21.5
2017-12-22T13:10:48.269Z,21.4
2017-12-22T13:11:56.354Z,21.4
2017-12-22T13:13:04.445Z,21.4
2017-12-22T13:14:12.529Z,21.4
2017-12-22T13:15:20.620Z,21.4
2017-12-22T13:16:28.699Z,21.4
2017-12-22T13:17:36.787Z,21.3
2017-12-22T13:18:44.870Z,21.3
2017-12-22T13:19:52.955Z,21.3
2017-12-22T13:21:01.039Z,21.3
2017-12-22T13:22:09.152Z,21.3
2017-12-22T13:23:17.209Z,21.3
2017-12-22T13:24:25.295Z,21.3
2017-12-22T13:25:33.383Z,21.3
2017-12-22T13:26:41.466Z,21.2
2017-12-22T13:27:49.559Z,21.3
2017-12-22T13:28:57.648Z,21.2
2017-12-22T13:30:05.734Z,21.2
2017-12-22T13:31:13.820Z,21.2
2017-12-22T13:32:21.900Z,21.2
2017-12-22T13:33:29.987Z,21.1
2017-12-22T13:34:38.071Z,21.1
2017-12-22T13:35:46.156Z,21.1
2017-12-22T13:36:54.253Z,21.2
2017-12-22T13:38:02.328Z,21.2
2017-12-22T13:39:10.420Z,21.1
2017-12-22T13:40:18.511Z,21.0
2017-12-22T13:41:26.589Z,21.1
2017-12-22T13:42:34.680Z,21.1
2017-12-22T13:43:42.760Z,21.0
2017-12-22T13:44:50.855Z,21.1
2017-12-22T13:45:58.941Z,21.1
2017-12-22T13:47:07.024Z,21.1
2017-12-22T13:48:15.108Z,21.0
2017-12-22T13:49:23.195Z,21.0
2017-12-22T13:50:31.279Z,21.0
2017-12-22T13:51:39.372Z,21.0
2017-12-22T13:52:47.457Z,21.0
2017-12-22T13:53:55.543Z,21.0
2017-12-22T13:55:03.629Z,21.1
2017-12-22T13:56:11.720Z,21.0
2017-12-22T13:57:19.799Z,21.0
2017-12-22T13:58:27.884Z,20.9
2017-12-22T13:59:35.969Z,21.0
2017-12-22T14:00:44.053Z,20.9
2017-12-22T14:01:52.143Z,20.9
2017-12-22T14:03:00.243Z,20.9
2017-12-22T14:04:08.309Z,20.9
2017-12-22T14:05:16.395Z,20.9
2017-12-22T14:06:24.498Z,20.9
2017-12-22T14:07:32.566Z,20.9
2017-12-22T14:08:40.654Z,20.8
2017-12-22T14:09:48.733Z,20.9
2017-12-22T14:10:56.817Z,20.9
2017-12-22T14:12:04.904Z,20.8
2017-12-22T14:13:12.987Z,20.8
2017-12-22T14:14:21.077Z,20.8
2017-12-22T14:15:29.159Z,20.8
2017-12-22T14:16:37.242Z,20.7
2017-12-22T14:17:45.330Z,20.8
2017-12-22T14:18:53.415Z,20.7
2017-12-22T14:20:03.169Z,20.6
2017-12-22T14:21:09.597Z,20.7
2017-12-22T14:22:17.687Z,20.7
2017-12-22T14:23:25.768Z,20.6
2017-12-22T14:24:33.854Z,20.7
2017-12-22T14:25:41.937Z,20.7
2017-12-22T14:26:50.021Z,20.7
2017-12-22T14:27:58.104Z,20.6
2017-12-22T14:29:06.193Z,20.6
2017-12-22T14:30:14.278Z,20.6
2017-12-22T14:31:22.367Z,20.6
2017-12-22T14:32:30.447Z,20.5
2017-12-22T14:33:38.534Z,20.5
2017-12-22T14:34:46.618Z,20.6
2017-12-22T14:35:54.702Z,20.5
2017-12-22T14:37:02.785Z,20.5
2017-12-22T14:38:10.879Z,20.5
2017-12-22T14:39:18.993Z,20.5
2017-12-22T14:40:27.039Z,20.5
2017-12-22T14:41:35.123Z,20.6
2017-12-22T14:42:43.220Z,20.4
2017-12-22T14:43:51.303Z,20.4
2017-12-22T14:44:59.387Z,20.5
2017-12-22T14:46:07.482Z,20.5
2017-12-22T14:47:15.569Z,20.5
2017-12-22T14:48:23.652Z,20.3
2017-12-22T14:49:31.737Z,20.4
2017-12-22T14:50:39.818Z,20.3
2017-12-22T14:51:47.903Z,20.4
2017-12-22T14:52:55.988Z,20.4
2017-12-22T14:54:04.075Z,20.3
2017-12-22T14:55:12.167Z,20.4
2017-12-22T14:56:20.248Z,20.3
2017-12-22T14:57:28.325Z,20.3
2017-12-22T14:58:36.413Z,20.3
2017-12-22T14:59:44.496Z,20.3
2017-12-22T15:00:52.581Z,20.3
2017-12-22T15:02:00.663Z,20.3
2017-12-22T15:03:08.749Z,20.2
2017-12-22T15:04:16.851Z,20.3
2017-12-22T15:05:24.917Z,20.2
2017-12-22T15:06:33.122Z,20.2